Time;durP1;ratioP1;P1;durP2;ratioP2;P2;SDS_P1;SDS_P2;PMS_P1;PMS_P2;Temp;Humidity;BMP_temperature;BMP_pressure;BME280_temperature;BME280_humidity;BME280_pressure;Samples;Min_cycle;Max_cycle;Signal;HPM_P1;HPM_P2
2021/08/27 00:01:54;;;;;;;23.27;17.35;;;;;;;22.54;74.55;99155.13;5032322;28;20040;-37
2021/08/27 00:04:19;;;;;;;19.77;15.75;;;;;;;22.47;75.24;99152.00;5034809;28;20025;-36
2021/08/27 00:06:44;;;;;;;18.15;15.35;;;;;;;23.05;72.63;99139.88;5031624;28;20029;-36
2021/08/27 00:09:10;;;;;;;19.58;15.95;;;;;;;23.02;72.50;99136.63;5043046;28;20041;-36
2021/08/27 00:11:36;;;;;;;22.40;17.48;;;;;;;22.70;73.94;99132.06;5036022;28;20766;-36
2021/08/27 00:14:02;;;;;;;23.15;17.58;;;;;;;22.54;74.58;99136.97;5032733;28;20108;-36
2021/08/27 00:16:27;;;;;;;21.98;18.13;;;;;;;23.00;72.60;99129.91;5051078;28;20108;-36
2021/08/27 00:18:53;;;;;;;23.65;18.15;;;;;;;22.98;72.40;99126.66;5041867;28;20041;-36
2021/08/27 00:21:18;;;;;;;24.77;18.58;;;;;;;22.44;74.70;99135.22;5044239;28;20033;-37
2021/08/27 00:23:44;;;;;;;24.55;18.08;;;;;;;22.34;75.50;99134.59;5035227;28;20032;-37
2021/08/27 00:26:09;;;;;;;23.02;17.15;;;;;;;22.57;74.83;99144.50;5041223;28;20070;-37
2021/08/27 00:28:34;;;;;;;24.17;17.67;;;;;;;23.18;71.94;99141.78;5050815;28;20032;-37
2021/08/27 00:31:00;;;;;;;21.95;17.30;;;;;;;22.70;73.52;99148.34;5040555;28;20029;-37
2021/08/27 00:33:25;;;;;;;23.50;17.27;;;;;;;22.43;75.05;99154.50;5044626;28;20029;-37
2021/08/27 00:35:51;;;;;;;21.00;17.85;;;;;;;22.61;74.95;99158.25;5034380;28;20033;-37
2021/08/27 00:38:16;;;;;;;24.23;19.80;;;;;;;23.13;72.33;99150.03;5046665;28;20017;-37
2021/08/27 00:40:42;;;;;;;25.75;19.85;;;;;;;22.47;75.09;99152.81;5038852;28;20588;-37
2021/08/27 00:43:11;;;;;;;25.42;19.23;;;;;;;22.43;75.58;99149.88;5039112;28;20029;-37
2021/08/27 00:45:36;;;;;;;28.83;19.70;;;;;;;22.53;74.67;99150.81;5046044;28;20441;-37
2021/08/27 00:48:02;;;;;;;23.23;18.90;;;;;;;23.25;71.38;99157.66;5034166;28;20155;-37
2021/08/27 00:50:28;;;;;;;25.00;20.08;;;;;;;22.78;73.96;99157.69;5044616;28;20079;-37
2021/08/27 00:52:53;;;;;;;25.20;19.90;;;;;;;22.67;74.60;99158.97;5040413;28;20041;-37
2021/08/27 00:55:19;;;;;;;27.20;19.27;;;;;;;22.44;75.46;99161.53;5019463;28;20504;-36
2021/08/27 00:57:44;;;;;;;23.30;18.73;;;;;;;23.28;71.89;99155.16;5046820;28;20394;-36
2021/08/27 01:00:11;;;;;;;23.77;19.70;;;;;;;22.63;75.17;99148.72;5033993;28;20032;-36
2021/08/27 01:02:36;;;;;;;26.60;21.45;;;;;;;22.73;75.32;99145.06;5039977;28;20100;-36
2021/08/27 01:05:04;;;;;;;28.88;21.95;;;;;;;22.67;75.65;99148.13;5039733;28;20080;-36
2021/08/27 01:07:30;;;;;;;28.75;22.50;;;;;;;23.18;73.41;99158.88;5044940;28;20028;-37
2021/08/27 01:10:11;;;;;;;27.70;21.73;;;;;;;22.82;75.03;99153.28;5030847;28;20388;-36
2021/08/27 01:12:57;;;;;;;28.00;22.50;;;;;;;22.68;76.17;99150.56;5036298;28;20128;-36
2021/08/27 01:15:44;;;;;;;27.48;20.75;;;;;;;22.52;76.94;99158.13;5028975;28;20048;-36
2021/08/27 01:18:36;;;;;;;29.25;22.52;;;;;;;23.33;72.46;99154.25;5030122;28;20033;-36
2021/08/27 01:21:35;;;;;;;30.58;23.48;;;;;;;22.54;76.98;99138.84;5033963;28;20053;-37
2021/08/27 01:24:01;;;;;;;33.53;26.15;;;;;;;22.68;76.49;99126.16;5046566;28;20380;-37
2021/08/27 01:26:32;;;;;;;35.75;26.70;;;;;;;22.75;76.01;99125.75;5014869;28;20029;-38
2021/08/27 01:28:57;;;;;;;37.80;28.10;;;;;;;23.35;73.07;99123.00;5040250;28;20044;-37
2021/08/27 01:31:32;;;;;;;32.95;25.67;;;;;;;22.78;75.52;99123.25;5036348;28;20033;-37
2021/08/27 01:34:21;;;;;;;30.25;24.58;;;;;;;22.41;77.39;99124.97;5048090;28;20029;-37
2021/08/27 01:36:47;;;;;;;28.23;22.60;;;;;;;22.68;76.06;99128.88;5049873;28;20032;-37
2021/08/27 01:39:13;;;;;;;29.77;23.80;;;;;;;23.30;73.29;99138.56;5037993;28;20029;-37
2021/08/27 01:41:39;;;;;;;26.50;20.42;;;;;;;22.79;75.08;99133.00;5044160;28;20134;-37
2021/08/27 01:44:05;;;;;;;29.70;23.52;;;;;;;22.70;75.69;99123.94;5028312;28;20705;-37
2021/08/27 01:46:32;;;;;;;27.60;21.45;;;;;;;22.77;74.98;99120.81;5028624;28;20033;-37
2021/08/27 01:48:58;;;;;;;26.15;19.20;;;;;;;23.11;73.19;99119.69;5038788;28;20021;-37
2021/08/27 01:51:23;;;;;;;24.27;16.98;;;;;;;22.65;74.49;99110.47;5048290;28;20035;-37
2021/08/27 01:53:49;;;;;;;21.45;16.65;;;;;;;22.55;75.15;99099.81;5028926;28;20031;-38
2021/08/27 01:56:14;;;;;;;24.40;18.90;;;;;;;22.58;74.92;99099.19;5048525;28;20032;-38
2021/08/27 01:58:40;;;;;;;23.90;18.25;;;;;;;22.81;73.92;99108.31;5040568;28;20025;-37
2021/08/27 02:01:05;;;;;;;25.90;16.73;;;;;;;22.39;75.79;99123.66;5034541;28;20036;-37
2021/08/27 02:03:31;;;;;;;21.60;13.70;;;;;;;22.37;75.44;99120.44;5042792;28;20102;-37
2021/08/27 02:05:56;;;;;;;17.90;12.95;;;;;;;22.32;75.77;99121.34;5029936;28;20018;-38
2021/08/27 02:08:22;;;;;;;18.52;12.70;;;;;;;23.05;72.54;99131.75;5028351;28;20107;-38
2021/08/27 02:10:47;;;;;;;18.50;12.10;;;;;;;22.60;74.31;99133.06;5038210;28;20056;-37
2021/08/27 02:13:13;;;;;;;21.45;12.10;;;;;;;22.63;74.09;99132.44;5027977;28;20032;-37
2021/08/27 02:15:39;;;;;;;20.92;12.13;;;;;;;22.55;74.24;99124.22;5043700;28;20037;-37
2021/08/27 02:18:04;;;;;;;17.15;12.65;;;;;;;23.26;70.92;99135.66;5028629;28;20420;-37
2021/08/27 02:20:30;;;;;;;18.35;12.73;;;;;;;22.53;74.22;99121.00;5035782;28;20040;-37
2021/08/27 02:22:55;;;;;;;18.48;12.50;;;;;;;22.13;76.10;99107.78;5039768;28;20099;-37
2021/08/27 02:25:22;;;;;;;19.33;13.40;;;;;;;22.21;75.74;99101.69;5034850;28;20025;-37
2021/08/27 02:27:48;;;;;;;17.08;13.65;;;;;;;22.96;72.18;99089.03;5044873;28;20055;-37
2021/08/27 02:30:14;;;;;;;18.88;14.25;;;;;;;22.43;73.77;99092.97;5045285;28;20025;-38
2021/08/27 02:32:40;;;;;;;18.35;13.40;;;;;;;22.00;76.11;99093.09;5028141;28;20049;-38
2021/08/27 02:35:06;;;;;;;18.38;13.27;;;;;;;22.00;76.45;99089.56;5022796;28;20028;-37
2021/08/27 02:37:33;;;;;;;16.42;12.98;;;;;;;22.71;73.34;99094.91;5037139;28;20026;-37
2021/08/27 02:39:59;;;;;;;17.15;14.15;;;;;;;22.36;74.72;99099.88;5049618;28;20501;-37
2021/08/27 02:42:27;;;;;;;15.95;13.43;;;;;;;22.00;76.66;99093.09;5032323;28;20064;-37
2021/08/27 02:44:54;;;;;;;18.92;13.38;;;;;;;22.03;76.64;99097.94;5043371;28;20064;-37
2021/08/27 02:47:19;;;;;;;20.73;13.70;;;;;;;22.79;73.23;99097.75;5053714;28;20112;-37
2021/08/27 02:49:45;;;;;;;21.33;15.23;;;;;;;22.50;73.85;99091.75;5036962;28;20412;-37
2021/08/27 02:52:35;;;;;;;19.85;14.48;;;;;;;22.20;75.15;99100.09;5048605;28;20516;-38
2021/08/27 02:55:20;;;;;;;20.37;13.60;;;;;;;21.84;76.72;99110.69;5043835;28;20033;-37
2021/08/27 02:57:54;;;;;;;20.67;14.32;;;;;;;22.70;72.89;99115.00;5036651;28;20365;-37
2021/08/27 03:00:20;;;;;;;19.30;13.48;;;;;;;22.30;74.95;99112.69;5048233;28;20036;-37
2021/08/27 03:02:46;;;;;;;24.08;14.70;;;;;;;22.25;75.03;99107.34;5032943;28;20088;-37
2021/08/27 03:05:13;;;;;;;23.33;14.77;;;;;;;22.30;74.58;99101.06;5023917;28;20080;-38
2021/08/27 03:07:42;;;;;;;26.23;16.95;;;;;;;22.93;72.11;99097.75;5031808;28;20021;-37
2021/08/27 03:10:11;;;;;;;24.92;15.88;;;;;;;22.12;75.30;99099.94;5032033;28;20484;-36
2021/08/27 03:12:49;;;;;;;25.02;16.30;;;;;;;21.84;76.91;99099.84;5038833;28;20027;-37
2021/08/27 03:15:20;;;;;;;25.00;16.65;;;;;;;21.91;76.38;99104.88;5051687;28;20445;-37
2021/08/27 03:17:46;;;;;;;26.00;17.10;;;;;;;22.58;73.74;99108.16;5051059;28;20052;-37
2021/08/27 03:20:17;;;;;;;27.33;17.70;;;;;;;22.14;75.32;99114.00;5035687;28;20036;-37
2021/08/27 03:22:49;;;;;;;24.20;17.75;;;;;;;21.88;77.12;99127.16;5043610;28;20021;-37
2021/08/27 03:25:14;;;;;;;25.33;16.85;;;;;;;21.94;76.74;99109.72;5022347;28;20025;-37
2021/08/27 03:27:44;;;;;;;27.30;17.38;;;;;;;22.72;73.72;99118.22;5048337;28;20040;-37
2021/08/27 03:30:17;;;;;;;25.40;17.77;;;;;;;22.48;74.44;99121.88;5034885;28;20029;-37
2021/08/27 03:32:47;;;;;;;27.42;17.20;;;;;;;21.93;77.33;99133.28;5031423;28;20116;-38
2021/08/27 03:35:17;;;;;;;24.33;17.60;;;;;;;22.06;76.61;99134.44;5027324;28;20136;-36
2021/08/27 03:37:42;;;;;;;26.70;18.23;;;;;;;22.78;73.40;99123.25;5035062;28;20029;-36
2021/08/27 03:40:09;;;;;;;27.67;18.30;;;;;;;22.37;74.90;99131.28;5049188;28;20029;-47
2021/08/27 03:42:36;;;;;;;27.65;18.20;;;;;;;22.06;76.40;99129.03;5039486;28;20107;-50
2021/08/27 03:45:01;;;;;;;30.02;19.15;;;;;;;22.19;75.90;99132.91;5041851;28;20021;-48
2021/08/27 03:47:26;;;;;;;26.67;18.88;;;;;;;22.65;73.90;99122.09;5028945;28;20025;-47
2021/08/27 03:49:52;;;;;;;28.73;18.65;;;;;;;22.10;75.94;99113.78;5034356;28;20462;-46
2021/08/27 03:52:17;;;;;;;28.45;19.35;;;;;;;21.88;77.25;99111.69;5029506;28;20022;-50
2021/08/27 03:54:43;;;;;;;32.08;21.38;;;;;;;22.04;76.79;99126.59;5021778;28;20114;-50
2021/08/27 03:57:09;;;;;;;26.50;19.25;;;;;;;22.64;74.16;99131.38;5038508;28;20036;-49
2021/08/27 03:59:34;;;;;;;33.53;20.52;;;;;;;22.39;74.46;99123.66;5046678;28;20489;-49
2021/08/27 04:02:00;;;;;;;27.33;18.50;;;;;;;22.30;75.13;99123.53;5031590;28;20432;-48
2021/08/27 04:04:25;;;;;;;26.23;14.70;;;;;;;22.23;74.55;99132.00;5035881;28;20028;-49
2021/08/27 04:06:58;;;;;;;32.83;21.50;;;;;;;22.97;68.89;99120.44;5042163;28;20018;-48
2021/08/27 04:09:24;;;;;;;16.38;11.93;;;;;;;22.39;71.37;99123.66;5033283;28;20406;-48
2021/08/27 04:11:50;;;;;;;17.98;10.93;;;;;;;22.03;72.83;99129.63;5046362;28;20029;-51
2021/08/27 04:14:16;;;;;;;16.13;11.02;;;;;;;22.02;72.86;99152.38;5035593;28;20040;-48
2021/08/27 04:16:42;;;;;;;21.13;10.73;;;;;;;22.12;72.18;99130.56;5043134;28;20525;-51
2021/08/27 04:19:08;;;;;;;21.63;12.13;;;;;;;22.85;68.66;99128.28;5042749;28;20439;-48
2021/08/27 04:21:33;;;;;;;17.40;12.50;;;;;;;22.50;69.31;99140.56;5036402;28;20104;-47
2021/08/27 04:23:59;;;;;;;29.02;16.98;;;;;;;22.38;69.24;99143.75;5047296;28;20029;-48
2021/08/27 04:26:24;;;;;;;25.73;12.52;;;;;;;22.33;72.71;99146.53;5030935;28;20013;-49
2021/08/27 04:28:49;;;;;;;17.58;10.98;;;;;;;22.21;71.69;99142.34;5040001;28;20025;-49
2021/08/27 04:31:15;;;;;;;18.25;12.10;;;;;;;23.07;68.08;99126.81;5038562;28;20029;-52
2021/08/27 04:33:40;;;;;;;31.40;18.15;;;;;;;22.54;69.01;99120.72;5046959;28;20024;-51
2021/08/27 04:36:06;;;;;;;38.15;24.92;;;;;;;22.34;71.76;99127.25;5038327;28;20468;-51
2021/08/27 04:38:31;;;;;;;19.83;12.45;;;;;;;22.26;73.48;99122.53;5050665;28;20028;-52
2021/08/27 04:40:57;;;;;;;18.95;11.25;;;;;;;22.36;73.01;99119.63;5049416;28;20029;-51
2021/08/27 04:43:22;;;;;;;21.95;11.77;;;;;;;22.92;70.05;99112.41;5050261;28;20025;-49
2021/08/27 04:45:48;;;;;;;18.98;13.15;;;;;;;23.40;66.78;99128.31;5033235;28;20047;-51
2021/08/27 04:48:13;;;;;;;20.40;14.45;;;;;;;23.12;68.18;99126.72;5045621;28;20695;-49
2021/08/27 04:50:39;;;;;;;34.20;15.98;;;;;;;22.79;70.42;99130.28;5037034;28;20028;-50
2021/08/27 04:53:04;;;;;;;26.27;17.95;;;;;;;22.94;71.00;99147.38;5038407;28;20025;-49
2021/08/27 04:55:30;;;;;;;51.15;40.58;;;;;;;23.38;69.37;99154.13;5044017;28;20025;-48
2021/08/27 04:57:55;;;;;;;24.83;13.25;;;;;;;23.68;68.13;99149.97;5032583;28;20029;-51
2021/08/27 05:00:21;;;;;;;19.70;13.27;;;;;;;23.37;68.88;99152.53;5044044;28;20382;-48
2021/08/27 05:02:46;;;;;;;18.33;12.15;;;;;;;23.47;68.69;99160.47;5038922;28;20029;-49
2021/08/27 05:05:12;;;;;;;24.23;13.40;;;;;;;23.84;66.98;99158.66;5038019;28;20454;-49
2021/08/27 05:07:37;;;;;;;18.52;12.82;;;;;;;24.06;67.01;99154.34;5045147;28;20021;-48
2021/08/27 05:10:03;;;;;;;26.08;12.15;;;;;;;24.64;63.75;99142.63;5033188;28;20032;-51
2021/08/27 05:12:29;;;;;;;17.88;12.65;;;;;;;24.02;65.42;99151.44;5043765;28;20021;-51
2021/08/27 05:14:54;;;;;;;22.30;12.98;;;;;;;23.75;66.85;99157.72;5039700;28;20100;-48
2021/08/27 05:17:20;;;;;;;18.48;12.93;;;;;;;23.80;67.99;99171.25;5036708;28;20052;-48
2021/08/27 05:19:45;;;;;;;22.38;14.25;;;;;;;24.13;66.99;99173.75;5046282;28;20405;-52
2021/08/27 05:22:11;;;;;;;21.83;14.68;;;;;;;24.46;66.10;99179.75;5033672;28;20025;-49
2021/08/27 05:24:36;;;;;;;24.50;16.63;;;;;;;24.25;66.71;99168.56;5043123;28;20026;-49
2021/08/27 05:27:02;;;;;;;27.77;18.00;;;;;;;24.10;67.38;99160.78;5029928;28;20018;-52
2021/08/27 05:29:27;;;;;;;28.63;17.85;;;;;;;23.90;68.07;99164.78;5044390;28;20025;-50
2021/08/27 05:31:53;;;;;;;65.78;48.08;;;;;;;24.13;67.43;99173.75;5033418;28;20036;-50
2021/08/27 05:34:20;;;;;;;47.63;30.42;;;;;;;24.61;65.78;99173.16;5045290;28;20482;-51
2021/08/27 05:36:45;;;;;;;28.08;18.48;;;;;;;24.25;67.60;99174.00;5038328;28;20183;-51
2021/08/27 05:39:11;;;;;;;27.08;18.65;;;;;;;24.19;67.81;99183.41;5038092;28;20386;-49
2021/08/27 05:41:36;;;;;;;30.63;19.77;;;;;;;24.45;67.09;99193.69;5045515;28;20421;-50
2021/08/27 05:44:02;;;;;;;27.70;19.55;;;;;;;24.50;66.86;99185.38;5033401;28;20047;-47
2021/08/27 05:46:27;;;;;;;27.88;20.58;;;;;;;24.73;65.98;99178.88;5043859;28;20021;-49
2021/08/27 05:48:53;;;;;;;31.50;22.67;;;;;;;24.33;67.12;99180.63;5039264;28;20052;-48
2021/08/27 05:51:18;;;;;;;31.50;21.17;;;;;;;24.22;67.40;99176.53;5036798;28;20423;-49
2021/08/27 05:53:44;;;;;;;32.58;22.55;;;;;;;24.22;68.14;99184.69;5044581;28;20075;-47
2021/08/27 05:56:09;;;;;;;34.35;23.42;;;;;;;24.07;69.04;99185.88;5048331;28;20021;-49
2021/08/27 05:58:35;;;;;;;31.13;22.20;;;;;;;24.58;67.03;99196.38;5042657;28;20091;-50
2021/08/27 06:01:00;;;;;;;32.75;23.52;;;;;;;23.97;69.25;99195.84;5040297;28;20032;-48
2021/08/27 06:03:25;;;;;;;44.15;27.95;;;;;;;24.02;69.80;99184.06;5035913;28;20501;-50
2021/08/27 06:05:51;;;;;;;112.88;59.78;;;;;;;23.88;70.33;99189.53;5046423;28;20087;-49
2021/08/27 06:08:16;;;;;;;111.55;61.47;;;;;;;24.47;68.29;99197.69;5034110;28;20048;-49
2021/08/27 06:10:42;;;;;;;62.88;39.53;;;;;;;24.14;69.32;99199.81;5042520;28;20036;-47
2021/08/27 06:13:07;;;;;;;47.80;30.83;;;;;;;24.19;68.73;99205.16;5045180;28;20495;-51
2021/08/27 06:15:33;;;;;;;58.83;37.30;;;;;;;24.07;70.07;99205.69;5038814;28;20017;-52
2021/08/27 06:17:58;;;;;;;47.83;29.73;;;;;;;24.78;66.95;99205.13;5050222;28;20017;-51
2021/08/27 06:20:23;;;;;;;54.25;34.67;;;;;;;24.37;67.04;99206.09;5039241;28;20457;-52
2021/08/27 06:22:49;;;;;;;60.92;35.40;;;;;;;24.22;67.86;99198.28;5044444;28;20048;-50
2021/08/27 06:25:15;;;;;;;58.08;34.05;;;;;;;24.12;68.12;99202.88;5040383;28;20583;-48
2021/08/27 06:27:40;;;;;;;50.83;32.17;;;;;;;24.42;67.14;99195.09;5049302;28;20104;-47
2021/08/27 06:30:07;;;;;;;56.83;35.40;;;;;;;24.52;66.84;99202.22;5036934;28;20020;-48
2021/08/27 06:32:32;;;;;;;107.25;73.28;;;;;;;24.15;68.95;99213.09;5046846;28;20117;-49
2021/08/27 06:34:58;;;;;;;47.50;31.73;;;;;;;24.11;69.25;99216.75;5043720;28;20100;-50
2021/08/27 06:38:21;;;;;;;49.83;33.05;;;;;;;24.38;67.61;99216.66;5039553;28;20026;-51
2021/08/27 06:40:10;;;;;;;50.40;32.35;;;;;;;25.16;64.62;99212.84;5036146;28;20024;-52
2021/08/27 06:42:35;;;;;;;46.47;30.88;;;;;;;24.91;66.35;99228.72;5045878;28;20021;-48
2021/08/27 06:45:01;;;;;;;49.40;31.55;;;;;;;24.92;66.49;99224.09;5049509;28;20492;-48
2021/08/27 06:47:26;;;;;;;48.33;31.15;;;;;;;24.88;66.01;99218.44;5053253;28;20025;-51
2021/08/27 06:49:51;;;;;;;50.55;31.65;;;;;;;25.65;63.21;99212.91;5036481;28;20030;-49
2021/08/27 06:52:17;;;;;;;50.92;32.30;;;;;;;24.80;65.56;99185.78;5048228;28;20096;-49
2021/08/27 06:54:43;;;;;;;53.40;34.10;;;;;;;24.83;64.83;99215.06;5041195;28;20021;-50
2021/08/27 06:57:09;;;;;;;53.63;34.58;;;;;;;24.94;64.29;99213.69;5031791;28;20180;-50
2021/08/27 06:59:34;;;;;;;51.53;33.75;;;;;;;25.04;64.68;99221.59;5048207;28;20488;-51
2021/08/27 07:02:00;;;;;;;50.20;33.53;;;;;;;25.54;62.25;99229.53;5036120;28;20025;-48
2021/08/27 07:04:26;;;;;;;50.88;31.63;;;;;;;25.08;64.92;99240.84;5047059;28;20029;-49
2021/08/27 07:06:51;;;;;;;50.78;31.30;;;;;;;25.09;65.53;99234.25;5041947;28;20017;-47
2021/08/27 07:09:17;;;;;;;76.78;51.47;;;;;;;25.33;64.77;99229.28;5037936;28;20081;-48
2021/08/27 07:11:43;;;;;;;65.50;44.53;;;;;;;26.13;62.30;99234.66;5048501;28;20021;-51
2021/08/27 07:14:10;;;;;;;57.53;33.47;;;;;;;25.58;62.80;99229.69;5035866;28;20028;-50
2021/08/27 07:16:35;;;;;;;55.40;34.22;;;;;;;25.50;62.10;99216.84;5045631;28;20021;-52
2021/08/27 07:19:00;;;;;;;56.03;34.08;;;;;;;25.52;63.32;99215.41;5042971;28;20021;-51
2021/08/27 07:21:26;;;;;;;52.78;34.90;;;;;;;25.50;62.40;99214.94;5038288;28;20025;-50
2021/08/27 07:23:51;;;;;;;59.15;36.92;;;;;;;25.76;60.76;99219.66;5047712;28;20128;-50
2021/08/27 07:26:17;;;;;;;54.75;33.95;;;;;;;25.66;61.63;99223.47;5031100;28;20018;-48
2021/08/27 07:28:42;;;;;;;54.42;34.45;;;;;;;25.67;61.64;99224.28;5040037;28;20069;-50
2021/08/27 07:31:08;;;;;;;52.47;32.97;;;;;;;26.72;58.96;99228.72;5040765;28;20095;-51
2021/08/27 07:33:33;;;;;;;56.05;33.55;;;;;;;26.34;59.55;99223.91;5047386;28;20032;-52
2021/08/27 07:35:59;;;;;;;53.45;33.17;;;;;;;26.07;60.28;99224.22;5035460;28;20471;-52
2021/08/27 07:38:24;;;;;;;51.88;33.30;;;;;;;26.56;58.04;99222.16;5046692;28;20025;-51
2021/08/27 07:40:49;;;;;;;47.50;32.35;;;;;;;27.24;56.34;99214.13;5041875;28;20025;-52
2021/08/27 07:43:15;;;;;;;44.33;30.67;;;;;;;27.30;55.06;99215.59;5045043;28;20052;-50
2021/08/27 07:45:41;;;;;;;50.63;32.20;;;;;;;27.43;55.99;99218.41;5041673;28;20013;-49
2021/08/27 07:48:07;;;;;;;48.80;32.80;;;;;;;27.44;55.03;99212.63;5038551;28;20027;-51
2021/08/27 07:50:32;;;;;;;48.05;31.60;;;;;;;27.50;54.39;99226.91;5038722;28;20028;-48
2021/08/27 07:53:01;;;;;;;43.38;29.00;;;;;;;28.10;54.10;99227.69;5041370;28;20028;-48
2021/08/27 07:55:27;;;;;;;39.97;27.08;;;;;;;28.24;51.81;99222.75;5038648;28;20541;-48
2021/08/27 07:57:52;;;;;;;37.58;27.45;;;;;;;28.34;51.88;99231.69;5040522;28;20036;-50
2021/08/27 08:00:18;;;;;;;36.03;26.67;;;;;;;28.56;51.45;99231.38;5038132;28;20029;-48
2021/08/27 08:02:43;;;;;;;33.63;23.73;;;;;;;28.94;50.88;99233.09;5039562;28;20018;-51
2021/08/27 08:05:09;;;;;;;35.92;22.40;;;;;;;29.50;49.50;99227.13;5036894;28;20021;-48
2021/08/27 08:07:35;;;;;;;26.20;19.83;;;;;;;29.73;47.13;99226.69;5046677;28;20028;-49
2021/08/27 08:10:00;;;;;;;28.05;20.02;;;;;;;29.65;47.50;99219.38;5035266;28;20040;-51
2021/08/27 08:12:26;;;;;;;24.02;18.88;;;;;;;29.84;47.36;99221.56;5045691;28;20484;-48
2021/08/27 08:14:51;;;;;;;24.10;18.23;;;;;;;30.45;46.56;99212.38;5040746;28;20024;-49
2021/08/27 08:17:17;;;;;;;25.38;18.83;;;;;;;30.98;45.47;99224.03;5038614;28;20036;-51
2021/08/27 08:19:42;;;;;;;24.95;18.70;;;;;;;30.75;46.02;99215.56;5047847;28;20070;-49
2021/08/27 08:22:08;;;;;;;24.52;18.92;;;;;;;30.89;43.91;99215.13;5034884;28;20021;-49
2021/08/27 08:24:33;;;;;;;25.88;18.13;;;;;;;30.93;44.84;99208.59;5044337;28;20018;-51
2021/08/27 08:26:59;;;;;;;23.30;18.40;;;;;;;31.02;44.49;99207.66;5030982;28;20073;-51
2021/08/27 08:29:24;;;;;;;23.80;18.15;;;;;;;31.81;44.14;99209.53;5044937;28;20032;-48
2021/08/27 08:31:51;;;;;;;25.98;18.40;;;;;;;32.18;42.56;99212.72;5034565;28;20445;-51
2021/08/27 08:34:17;;;;;;;25.40;18.90;;;;;;;31.86;42.96;99215.56;5045472;28;20021;-50
2021/08/27 08:36:42;;;;;;;24.75;18.95;;;;;;;32.03;43.56;99222.63;5038788;28;20025;-50
2021/08/27 08:39:08;;;;;;;23.13;16.73;;;;;;;32.32;42.47;99214.97;5039814;28;20493;-49
2021/08/27 08:41:33;;;;;;;27.05;17.42;;;;;;;32.39;40.92;99212.38;5046204;28;20056;-50
2021/08/27 08:43:59;;;;;;;19.80;16.85;;;;;;;31.91;41.78;99204.28;5034769;28;20029;-47
2021/08/27 08:46:24;;;;;;;22.55;16.25;;;;;;;31.24;41.87;99207.00;5045102;28;20378;-50
2021/08/27 08:48:50;;;;;;;22.58;16.33;;;;;;;31.06;42.54;99209.31;5038551;28;20021;-50
2021/08/27 08:51:17;;;;;;;21.30;15.35;;;;;;;30.91;42.46;99201.88;5037886;28;20036;-48
2021/08/27 08:53:45;;;;;;;20.90;15.25;;;;;;;32.10;41.23;99203.53;5047111;28;20021;-51
2021/08/27 08:56:12;;;;;;;23.20;17.55;;;;;;;31.51;42.32;99204.53;5034668;28;20081;-49
2021/08/27 08:58:37;;;;;;;25.33;19.10;;;;;;;30.98;43.38;99210.28;5042967;28;20037;-48
2021/08/27 09:01:03;;;;;;;29.08;19.65;;;;;;;30.79;44.16;99199.97;5035117;28;20112;-51
2021/08/27 09:03:28;;;;;;;27.73;19.23;;;;;;;30.72;45.04;99194.28;5038315;28;20029;-51
2021/08/27 09:05:54;;;;;;;24.92;18.00;;;;;;;31.91;42.66;99186.94;5034663;28;20009;-51
2021/08/27 09:08:39;;;;;;;22.33;16.85;;;;;;;31.41;41.77;99183.84;5037575;28;20424;-51
2021/08/27 09:11:16;;;;;;;23.48;17.33;;;;;;;31.32;41.79;99180.50;5036427;28;20017;-50
2021/08/27 09:13:42;;;;;;;21.42;16.75;;;;;;;31.17;42.25;99179.38;5040881;28;20032;-50
2021/08/27 09:16:08;;;;;;;23.45;17.52;;;;;;;31.52;40.93;99175.88;5037366;28;20026;-49
2021/08/27 09:18:41;;;;;;;22.98;16.55;;;;;;;31.77;41.57;99179.19;5036004;28;20021;-48
2021/08/27 09:21:29;;;;;;;21.58;16.38;;;;;;;31.79;42.13;99179.63;5040685;28;20048;-52
2021/08/27 09:24:26;;;;;;;19.63;15.50;;;;;;;31.94;41.42;99169.72;5046378;28;20449;-50
2021/08/27 09:26:59;;;;;;;18.63;15.15;;;;;;;32.13;40.94;99169.75;5029955;28;20029;-49
2021/08/27 09:29:35;;;;;;;21.48;15.68;;;;;;;33.28;39.31;99169.13;5043792;28;20417;-48
2021/08/27 09:32:16;;;;;;;25.27;18.05;;;;;;;32.68;39.67;99155.88;5033013;28;20043;-49
2021/08/27 09:34:41;;;;;;;23.25;18.17;;;;;;;32.36;41.99;99163.53;5040541;28;20021;-48
2021/08/27 09:37:07;;;;;;;22.65;17.70;;;;;;;32.45;41.05;99164.09;5039985;28;20428;-50
2021/08/27 09:39:33;;;;;;;23.30;17.23;;;;;;;32.18;39.57;99167.88;5034867;28;20037;-48
2021/08/27 09:41:58;;;;;;;24.33;18.45;;;;;;;31.90;39.70;99157.88;5046709;28;20044;-52
2021/08/27 09:44:24;;;;;;;25.98;18.02;;;;;;;31.19;41.36;99155.09;5035586;28;20025;-48
2021/08/27 09:46:49;;;;;;;25.52;17.67;;;;;;;30.37;43.21;99167.47;5040511;28;20025;-47
2021/08/27 09:49:35;;;;;;;22.65;17.27;;;;;;;30.43;44.26;99155.09;5042689;28;20499;-50
2021/08/27 09:52:01;;;;;;;24.70;18.15;;;;;;;31.11;42.37;99154.13;5033032;28;20021;-48
2021/08/27 09:54:31;;;;;;;24.30;17.92;;;;;;;31.23;41.72;99144.19;5043730;28;20039;-48
2021/08/27 09:57:06;;;;;;;26.35;19.25;;;;;;;30.80;42.08;99149.38;5039525;28;20041;-52
2021/08/27 09:59:50;;;;;;;24.65;18.48;;;;;;;30.65;42.95;99144.66;5034833;28;20358;-50
2021/08/27 10:02:25;;;;;;;24.20;17.88;;;;;;;30.68;43.13;99147.50;5034800;28;20032;-50
2021/08/27 10:04:51;;;;;;;24.75;17.15;;;;;;;31.81;41.75;99133.31;5040721;28;20033;-50
2021/08/27 10:07:33;;;;;;;20.83;16.95;;;;;;;31.41;42.39;99128.88;5042867;28;20029;-48
2021/08/27 10:09:59;;;;;;;24.13;18.67;;;;;;;31.72;40.81;99127.22;5033195;28;20041;-49
2021/08/27 10:12:32;;;;;;;24.00;17.73;;;;;;;31.49;42.78;99116.94;5044258;28;20025;-51
2021/08/27 10:14:58;;;;;;;23.42;17.75;;;;;;;31.75;41.62;99126.50;5040280;28;20025;-51
2021/08/27 10:17:23;;;;;;;23.42;18.33;;;;;;;32.07;39.57;99118.94;5036092;28;20033;-51
2021/08/27 10:19:49;;;;;;;23.67;17.65;;;;;;;31.91;39.89;99105.25;5045754;28;20063;-51
2021/08/27 10:22:15;;;;;;;24.50;18.30;;;;;;;31.65;40.75;99107.84;5033780;28;20029;-49
2021/08/27 10:24:43;;;;;;;24.08;18.52;;;;;;;31.58;41.82;99100.22;5041607;28;20083;-48
2021/08/27 10:27:09;;;;;;;25.80;19.10;;;;;;;31.91;42.35;99102.50;5028202;28;20425;-48
2021/08/27 10:29:35;;;;;;;23.08;18.33;;;;;;;31.85;41.50;99100.38;5043601;28;20037;-51
2021/08/27 10:32:01;;;;;;;23.42;17.98;;;;;;;31.45;41.76;99105.00;5032972;28;20029;-50
2021/08/27 10:34:44;;;;;;;22.08;17.85;;;;;;;31.70;41.58;99096.53;5025566;28;20052;-51
2021/08/27 10:37:17;;;;;;;21.45;17.42;;;;;;;31.80;42.20;99084.97;5041247;28;20040;-49
2021/08/27 10:39:45;;;;;;;20.85;16.58;;;;;;;32.07;41.07;99082.38;5031800;28;20084;-48
2021/08/27 10:42:46;;;;;;;20.90;16.73;;;;;;;32.54;39.07;99078.53;5033038;28;20053;-49
2021/08/27 10:45:11;;;;;;;22.15;17.05;;;;;;;33.36;37.63;99076.28;5037618;28;20162;-50
2021/08/27 10:47:37;;;;;;;24.65;16.60;;;;;;;32.58;38.88;99073.09;5045439;28;20044;-51
2021/08/27 10:50:06;;;;;;;23.45;17.15;;;;;;;32.05;39.45;99069.00;5014796;28;20028;-48
2021/08/27 10:52:35;;;;;;;;;;;;;;;31.92;40.22;99064.78;5038036;28;20021;-50
2021/08/27 10:55:04;;;;;;;22.25;16.77;;;;;;;31.53;41.00;99065.56;5039779;28;19913;-50
2021/08/27 10:57:29;;;;;;;;;;;;;;;31.52;41.71;99060.44;5039283;28;20378;-49
2021/08/27 11:00:01;;;;;;;19.67;15.07;;;;;;;31.62;40.78;99059.84;5043955;28;19909;-49
2021/08/27 11:02:27;;;;;;;18.10;14.40;;;;;;;31.87;40.14;99065.88;5040019;28;20029;-50
2021/08/27 11:04:53;;;;;;;16.88;14.45;;;;;;;31.60;40.57;99070.41;5040570;28;20021;-51
2021/08/27 11:07:20;;;;;;;20.77;14.60;;;;;;;31.66;40.77;99062.66;5035141;28;20014;-47
2021/08/27 11:10:10;;;;;;;16.73;13.75;;;;;;;32.23;39.87;99063.00;5047472;28;20620;-51
2021/08/27 11:12:36;;;;;;;17.77;13.38;;;;;;;31.73;39.55;99066.38;5039596;28;20404;-51
2021/08/27 11:15:29;;;;;;;16.20;12.77;;;;;;;31.80;40.67;99064.94;5040179;28;20029;-50
2021/08/27 11:18:16;;;;;;;15.95;12.77;;;;;;;32.19;40.62;99068.44;5049253;28;20071;-51
2021/08/27 11:20:42;;;;;;;16.67;13.00;;;;;;;33.20;38.14;99064.63;5040017;28;20425;-49